Nortonville, Kansas
Current Conditions -  °F | °C
As of 4:52 AM on Sunday 26 Oct 2014 (Local Time) from KLWC Reporting Station
Clear Clear  
Wind Chill: 56°   Ceiling: Unl
Heat Index: 56°   Visibility: 8mi
Dew Point: 53°   Wind: 6mph
Humidity: 90%   Direction: 100°E
Pressure: 29.91"   Gusts: NA
Location:  39.42°N, 95.33°W
Report Text: KLWC 260952Z AUTO 10005KT 8SM CLR 13/12 A2991 RMK AO2 SLP124 T01330117
Loading
Personal Weather Stations






























Interactive Weather Map
Tropical Storm Tracking
New forecast layout! Learn more

10-Day Weather Forecast

Advertisements
Track Severe Weather on mobile